Time;durP1;ratioP1;P1;durP2;ratioP2;P2;SDS_P1;SDS_P2;PMS_P1;PMS_P2;Temp;Humidity;BMP_temperature;BMP_pressure;BME280_temperature;BME280_humidity;BME280_pressure;Samples;Min_cycle;Max_cycle;Signal;HPM_P1;HPM_P2
2021/12/06 00:00:33;;;;;;;;;;;;;;;-2.97;100.00;98844.56;1738967;80;21150;-70
2021/12/06 00:03:02;;;;;;;;;;;;;;;-2.96;100.00;98846.69;1733400;82;20086;-70
2021/12/06 00:05:29;;;;;;;;;;;;;;;-2.96;100.00;98851.47;1737451;80;20119;-70
2021/12/06 00:07:55;;;;;;;;;;;;;;;-2.95;100.00;98850.45;1742592;80;20087;-70
2021/12/06 00:10:23;;;;;;;;;;;;;;;-2.94;100.00;98849.47;1744631;81;20123;-70
2021/12/06 00:12:51;;;;;;;;;;;;;;;-2.92;100.00;98851.39;1747879;82;21156;-70
2021/12/06 00:15:17;;;;;;;;;;;;;;;-2.91;100.00;98851.73;1746763;81;20135;-70
2021/12/06 00:17:45;;;;;;;;;;;;;;;-2.90;100.00;98848.09;1743026;82;20083;-70
2021/12/06 00:20:12;;;;;;;;;;;;;;;-2.89;100.00;98842.33;1745201;82;20099;-70
2021/12/06 00:22:39;;;;;;;;;;;;;;;-2.88;100.00;98850.55;1747569;82;20150;-70
2021/12/06 00:25:09;;;;;;;;;;;;;;;-2.87;100.00;98843.77;1747189;81;21167;-70
2021/12/06 00:27:38;;;;;;;;;;;;;;;-2.87;100.00;98847.71;1748566;81;20122;-70
2021/12/06 00:30:12;;;;;;;;;;;;;;;-2.86;100.00;98844.61;1747794;82;20413;-71
2021/12/06 00:32:40;;;;;;;;;;;;;;;-2.86;100.00;98835.42;1748798;81;20475;-70
2021/12/06 00:35:11;;;;;;;;;;;;;;;-2.87;100.00;98846.40;1748274;82;20126;-70
2021/12/06 00:37:45;;;;;;;;;;;;;;;-2.86;100.00;98848.05;1741739;81;20496;-70
2021/12/06 00:40:11;;;;;;;;;;;;;;;-2.86;100.00;98840.67;1746162;82;20206;-71
2021/12/06 00:42:37;;;;;;;;;;;;;;;-2.86;100.00;98852.48;1748231;81;20483;-70
2021/12/06 00:45:06;;;;;;;;;;;;;;;-2.85;100.00;98848.34;1742903;82;20138;-70
2021/12/06 00:47:33;;;;;;;;;;;;;;;-2.88;100.00;98848.72;1742049;82;20202;-71
2021/12/06 00:49:59;;;;;;;;;;;;;;;-2.85;100.00;98860.67;1740139;82;21171;-70
2021/12/06 00:52:26;;;;;;;;;;;;;;;-2.86;100.00;98851.98;1725981;82;20099;-70
2021/12/06 00:54:53;;;;;;;;;;;;;;;-2.86;100.00;98842.80;1728007;81;20111;-70
2021/12/06 00:57:20;;;;;;;;;;;;;;;-2.85;100.00;98847.54;1734236;81;20673;-70
2021/12/06 00:59:47;;;;;;;;;;;;;;;-2.83;100.00;98838.98;1742852;82;20499;-70
2021/12/06 01:02:13;;;;;;;;;;;;;;;-2.85;100.00;98841.78;1743253;81;21199;-70
2021/12/06 01:04:40;;;;;;;;;;;;;;;-2.85;100.00;98830.47;1743237;81;20122;-70
2021/12/06 01:07:07;;;;;;;;;;;;;;;-2.85;100.00;98832.59;1743442;82;20157;-70
2021/12/06 01:09:34;;;;;;;;;;;;;;;-2.85;100.00;98820.77;1743840;80;20105;-70
2021/12/06 01:12:01;;;;;;;;;;;;;;;-2.85;100.00;98825.22;1744612;82;20176;-70
2021/12/06 01:14:27;;;;;;;;;;;;;;;-2.87;100.00;98817.52;1744284;82;21147;-70
2021/12/06 01:16:54;;;;;;;;;;;;;;;-2.87;100.00;98814.88;1743455;82;20098;-70
2021/12/06 01:19:27;;;;;;;;;;;;;;;-2.86;100.00;98822.29;1744325;82;20118;-70
2021/12/06 01:22:03;;;;;;;;;;;;;;;-2.86;100.00;98817.03;1742251;81;20483;-70
2021/12/06 01:24:25;;;;;;;;;;;;;;;-2.86;100.00;98813.09;1739772;82;20185;-70
2021/12/06 01:32:47;;;;;;;;;;;;;;;-2.89;100.00;98798.52;1743630;81;20129;-70
2021/12/06 01:40:00;;;;;;;;;;;;;;;-2.85;100.00;98806.83;1744463;82;21877;-70
2021/12/06 01:42:27;;;;;;;;;;;;;;;-2.84;100.00;98807.97;1743114;81;20204;-70
2021/12/06 01:44:55;;;;;;;;;;;;;;;-2.84;100.00;98806.66;1743160;82;20126;-70
2021/12/06 01:47:27;;;;;;;;;;;;;;;-2.83;100.00;98805.64;1744426;82;20146;-70
2021/12/06 01:49:56;;;;;;;;;;;;;;;-2.82;100.00;98802.04;1744371;81;20471;-70
2021/12/06 01:52:27;;;;;;;;;;;;;;;-2.78;100.00;98802.47;1743081;82;21146;-70
2021/12/06 01:54:55;;;;;;;;;;;;;;;-2.78;100.00;98806.91;1744184;81;20273;-70
2021/12/06 01:57:23;;;;;;;;;;;;;;;-2.77;100.00;98801.96;1744881;82;20126;-70
2021/12/06 01:59:50;;;;;;;;;;;;;;;-2.77;100.00;98806.70;1746343;81;20728;-70
2021/12/06 02:02:21;;;;;;;;;;;;;;;-2.73;100.00;98799.28;1754127;81;20452;-70
2021/12/06 02:04:48;;;;;;;;;;;;;;;-2.72;100.00;98800.42;1743347;82;21806;-70
2021/12/06 02:07:19;;;;;;;;;;;;;;;-2.70;100.00;98801.53;1743385;82;20119;-70
2021/12/06 02:09:49;;;;;;;;;;;;;;;-2.69;100.00;98807.92;1748830;80;20497;-69
2021/12/06 02:12:16;;;;;;;;;;;;;;;-2.69;100.00;98803.17;1793682;79;20117;-70
2021/12/06 02:17:28;;;;;;;;;;;;;;;-2.69;100.00;98796.61;1789875;79;20586;-70
2021/12/06 02:19:56;;;;;;;;;;;;;;;-2.67;100.00;98798.05;1811478;79;20098;-70
2021/12/06 02:22:26;;;;;;;;;;;;;;;-2.65;100.00;98809.66;1812573;79;20435;-71
2021/12/06 02:24:53;;;;;;;;;;;;;;;-2.65;100.00;98809.66;1812212;78;20091;-71
2021/12/06 02:27:22;;;;;;;;;;;;;;;-2.65;100.00;98814.41;1811707;78;20106;-70
2021/12/06 02:29:50;;;;;;;;;;;;;;;-2.65;100.00;98809.66;1811644;79;21578;-68
2021/12/06 02:32:17;;;;;;;;;;;;;;;-2.65;100.00;98807.03;1813659;78;20102;-69
2021/12/06 02:34:48;;;;;;;;;;;;;;;-2.65;100.00;98810.98;1793194;79;20078;-69
2021/12/06 02:37:18;;;;;;;;;;;;;;;-2.64;100.00;98811.31;1813274;78;20149;-69
2021/12/06 02:39:45;;;;;;;;;;;;;;;-2.62;100.00;98815.88;1811395;79;20133;-69
2021/12/06 02:42:14;;;;;;;;;;;;;;;-2.61;100.00;98813.05;1813467;79;21117;-69
2021/12/06 02:44:43;;;;;;;;;;;;;;;-2.60;100.00;98809.91;1813130;79;20133;-69
2021/12/06 02:47:11;;;;;;;;;;;;;;;-2.59;100.00;98815.00;1813807;79;20142;-70
2021/12/06 02:49:38;;;;;;;;;;;;;;;-2.59;100.00;98812.87;1811625;79;20145;-70
2021/12/06 02:52:05;;;;;;;;;;;;;;;-2.57;100.00;98815.30;1812102;79;20079;-70
2021/12/06 02:54:32;;;;;;;;;;;;;;;-2.57;100.00;98810.88;1812692;79;21772;-70
2021/12/06 02:59:43;;;;;;;;;;;;;;;-2.59;100.00;98797.11;1786219;78;20124;-69
2021/12/06 03:02:12;;;;;;;;;;;;;;;-2.57;100.00;98796.42;1727378;81;20630;-69
2021/12/06 03:04:39;;;;;;;;;;;;;;;-2.56;100.00;98804.61;1685234;84;20192;-69
2021/12/06 03:07:07;;;;;;;;;;;;;;;-2.56;100.00;98802.48;1723191;82;21162;-70
2021/12/06 03:09:37;;;;;;;;;;;;;;;-2.56;100.00;98814.31;1722691;82;20476;-70
2021/12/06 03:12:08;;;;;;;;;;;;;;;-2.57;100.00;98797.73;1722976;83;20124;-70
2021/12/06 03:14:41;;;;;;;;;;;;;;;-2.57;100.00;98795.59;1722894;83;20100;-70
2021/12/06 03:17:11;;;;;;;;;;;;;;;-2.57;100.00;98798.22;1722967;82;20124;-70
2021/12/06 03:19:38;;;;;;;;;;;;;;;-2.56;100.00;98797.23;1722561;83;21074;-70
2021/12/06 03:22:07;;;;;;;;;;;;;;;-2.56;100.00;98789.35;1723351;82;20148;-69
2021/12/06 03:24:34;;;;;;;;;;;;;;;-2.54;100.00;98792.61;1720544;82;20100;-70
2021/12/06 03:27:00;;;;;;;;;;;;;;;-2.55;100.00;98784.39;1723383;83;20180;-71
2021/12/06 03:29:28;;;;;;;;;;;;;;;-2.56;100.00;98783.59;1723068;83;20494;-70
2021/12/06 03:31:55;;;;;;;;;;;;;;;-2.54;100.00;98781.59;1723455;83;21126;-70
2021/12/06 03:34:26;;;;;;;;;;;;;;;-2.54;100.00;98782.91;1722785;83;20162;-70
2021/12/06 03:36:50;;;;;;;;;;;;;;;-2.53;100.00;98779.77;1722770;83;20124;-70
2021/12/06 03:39:26;;;;;;;;;;;;;;;-2.52;100.00;98787.95;1722925;83;20179;-70
2021/12/06 03:41:55;;;;;;;;;;;;;;;-2.52;100.00;98790.11;1722160;82;20186;-70
2021/12/06 03:44:22;;;;;;;;;;;;;;;-2.51;100.00;98789.09;1723553;82;21142;-70
2021/12/06 03:46:52;;;;;;;;;;;;;;;-2.52;100.00;98789.27;1723803;83;20100;-70
2021/12/06 03:49:19;;;;;;;;;;;;;;;-2.50;100.00;98795.16;1722617;83;20140;-70
2021/12/06 03:51:47;;;;;;;;;;;;;;;-2.50;100.00;98797.78;1722991;83;20144;-70
2021/12/06 03:54:16;;;;;;;;;;;;;;;-2.48;100.00;98795.78;1723015;83;20128;-70
2021/12/06 03:56:45;;;;;;;;;;;;;;;-2.47;100.00;98794.80;1723439;83;21808;-69
2021/12/06 03:59:11;;;;;;;;;;;;;;;-2.44;100.00;98805.73;1723927;83;20603;-70
2021/12/06 04:01:38;;;;;;;;;;;;;;;-2.44;100.00;98798.36;1726167;81;20157;-69
2021/12/06 04:04:06;;;;;;;;;;;;;;;-2.42;100.00;98807.68;1748880;81;20093;-69
2021/12/06 04:06:33;;;;;;;;;;;;;;;-2.39;100.00;98809.12;1746790;82;20393;-69
2021/12/06 04:09:00;;;;;;;;;;;;;;;-2.38;100.00;98808.94;1722646;81;21178;-69
2021/12/06 04:11:27;;;;;;;;;;;;;;;-2.36;100.00;98811.36;1772804;81;20720;-70
2021/12/06 04:13:54;;;;;;;;;;;;;;;-2.35;100.00;98814.80;1766506;80;20097;-70
2021/12/06 04:16:21;;;;;;;;;;;;;;;-2.33;100.00;98811.48;1789770;80;20080;-70
2021/12/06 04:18:51;;;;;;;;;;;;;;;-2.31;100.00;98809.48;1789473;80;20080;-70
2021/12/06 04:21:20;;;;;;;;;;;;;;;-2.31;100.00;98808.98;1785971;80;21827;-70
2021/12/06 04:23:47;;;;;;;;;;;;;;;-2.30;100.00;98815.05;1793404;80;20127;-70
2021/12/06 04:26:14;;;;;;;;;;;;;;;-2.30;100.00;98811.94;1794234;79;20111;-69
2021/12/06 04:28:47;;;;;;;;;;;;;;;-2.27;100.00;98809.43;1793593;80;20100;-70
2021/12/06 04:31:12;;;;;;;;;;;;;;;-2.24;100.00;98811.67;1791425;80;20426;-70
2021/12/06 04:33:39;;;;;;;;;;;;;;;-2.23;100.00;98809.34;1789258;80;21080;-69
2021/12/06 04:36:05;;;;;;;;;;;;;;;-2.24;100.00;98803.79;1789652;80;20112;-69
2021/12/06 04:38:32;;;;;;;;;;;;;;;-2.24;100.00;98803.28;1789732;80;20207;-70
2021/12/06 04:41:00;;;;;;;;;;;;;;;-2.22;100.00;98805.22;1789562;80;20112;-70
2021/12/06 04:43:28;;;;;;;;;;;;;;;-2.23;100.00;98802.77;1793398;80;20072;-70
2021/12/06 04:45:56;;;;;;;;;;;;;;;-2.23;100.00;98804.92;1789276;80;21138;-70
2021/12/06 04:48:23;;;;;;;;;;;;;;;-2.22;100.00;98807.05;1790730;78;20080;-69
2021/12/06 04:50:49;;;;;;;;;;;;;;;-2.21;100.00;98812.09;1794218;78;20067;-69
2021/12/06 04:53:20;;;;;;;;;;;;;;;-2.21;100.00;98811.28;1793761;80;20203;-69
2021/12/06 04:56:00;;;;;;;;;;;;;;;-2.20;100.00;98815.05;1794009;80;20123;-70
2021/12/06 04:58:30;;;;;;;;;;;;;;;-2.19;100.00;98815.86;1793513;80;21100;-70
2021/12/06 05:01:09;;;;;;;;;;;;;;;-2.19;100.00;98813.23;1791915;78;20180;-69
2021/12/06 05:03:37;;;;;;;;;;;;;;;-2.16;100.00;98818.10;1794216;78;20227;-69
2021/12/06 05:06:09;;;;;;;;;;;;;;;-2.16;100.00;98822.05;1794609;80;20079;-69
2021/12/06 05:08:42;;;;;;;;;;;;;;;-2.14;100.00;98823.98;1794316;78;20143;-69
2021/12/06 05:11:09;;;;;;;;;;;;;;;-2.11;100.00;98824.11;1794291;78;21988;-69
2021/12/06 05:13:36;;;;;;;;;;;;;;;-2.11;100.00;98825.42;1794299;78;20504;-69
2021/12/06 05:16:02;;;;;;;;;;;;;;;-2.12;100.00;98825.94;1812835;78;20437;-69
2021/12/06 05:18:29;;;;;;;;;;;;;;;-2.12;100.00;98823.30;1795334;78;20154;-69
2021/12/06 05:20:56;;;;;;;;;;;;;;;-2.12;100.00;98821.98;1795731;78;20128;-70
2021/12/06 05:23:23;;;;;;;;;;;;;;;-2.10;100.00;98826.56;1794881;78;21012;-69
2021/12/06 05:25:50;;;;;;;;;;;;;;;-2.07;100.00;98818.80;1794194;78;20434;-69
2021/12/06 05:28:17;;;;;;;;;;;;;;;-2.09;100.00;98822.92;1794124;78;20088;-69
2021/12/06 05:30:45;;;;;;;;;;;;;;;-2.08;100.00;98814.52;1794604;79;20654;-69
2021/12/06 05:33:18;;;;;;;;;;;;;;;-2.07;100.00;98810.91;1794256;78;20159;-69
2021/12/06 05:35:42;;;;;;;;;;;;;;;-2.09;100.00;98815.03;1794784;78;21776;-70
2021/12/06 05:38:09;;;;;;;;;;;;;;;-2.08;100.00;98813.20;1794111;79;20080;-70
2021/12/06 05:40:35;;;;;;;;;;;;;;;-2.05;100.00;98813.66;1793762;78;20121;-70
2021/12/06 05:43:03;;;;;;;;;;;;;;;-2.03;100.00;98800.33;1794100;78;20635;-70
2021/12/06 05:45:32;;;;;;;;;;;;;;;-2.03;100.00;98805.59;1793967;79;20108;-69
2021/12/06 05:48:01;;;;;;;;;;;;;;;-2.02;100.00;98803.25;1794311;78;21211;-70
2021/12/06 05:50:27;;;;;;;;;;;;;;;-2.03;100.00;98802.95;1794392;78;20180;-69
2021/12/06 05:52:55;;;;;;;;;;;;;;;-2.02;100.00;98806.70;1793964;80;20125;-70
2021/12/06 05:55:24;;;;;;;;;;;;;;;-2.01;100.00;98806.19;1794488;79;20076;-70
2021/12/06 05:57:51;;;;;;;;;;;;;;;-2.00;100.00;98811.27;1794428;78;20104;-70
2021/12/06 06:00:20;;;;;;;;;;;;;;;-1.99;100.00;98816.83;1792371;79;21561;-70
2021/12/06 06:02:49;;;;;;;;;;;;;;;-1.98;100.00;98820.30;1786388;79;20084;-70
2021/12/06 06:05:18;;;;;;;;;;;;;;;-1.98;100.00;98822.92;1788172;79;20421;-70
2021/12/06 06:07:45;;;;;;;;;;;;;;;-1.98;100.00;98819.78;1788477;78;20166;-69
2021/12/06 06:10:12;;;;;;;;;;;;;;;-1.96;100.00;98824.36;1786815;80;20132;-69
2021/12/06 06:12:38;;;;;;;;;;;;;;;-1.95;100.00;98822.53;1766795;80;21154;-69
2021/12/06 06:15:06;;;;;;;;;;;;;;;-1.95;100.00;98823.34;1727101;80;20098;-69
2021/12/06 06:17:40;;;;;;;;;;;;;;;-1.93;100.00;98821.04;1786057;78;20266;-68
2021/12/06 06:20:07;;;;;;;;;;;;;;;-1.90;100.00;98824.59;1785950;78;20147;-69
2021/12/06 06:22:33;;;;;;;;;;;;;;;-1.87;100.00;98833.41;1787662;80;20156;-70
2021/12/06 06:25:03;;;;;;;;;;;;;;;-1.86;100.00;98832.39;1789662;78;21135;-68
2021/12/06 06:27:31;;;;;;;;;;;;;;;-1.85;100.00;98840.11;1794894;78;20191;-69
2021/12/06 06:29:57;;;;;;;;;;;;;;;-1.83;100.00;98841.24;1805079;79;20121;-68
2021/12/06 06:32:24;;;;;;;;;;;;;;;-1.83;100.00;98843.37;1783149;77;20449;-67
2021/12/06 06:34:51;;;;;;;;;;;;;;;-1.81;100.00;98853.71;1791833;79;20148;-69
2021/12/06 06:37:18;;;;;;;;;;;;;;;-1.78;100.00;98854.12;1786485;79;20842;-67
2021/12/06 06:39:46;;;;;;;;;;;;;;;-1.78;100.00;98860.70;1788676;79;20092;-68
2021/12/06 06:42:12;;;;;;;;;;;;;;;-1.78;100.00;98874.37;1788179;79;20132;-68
2021/12/06 06:44:40;;;;;;;;;;;;;;;-1.75;100.00;98875.30;1791205;79;20168;-69
2021/12/06 06:47:06;;;;;;;;;;;;;;;-1.76;100.00;98872.36;1791076;78;20148;-69
2021/12/06 06:49:33;;;;;;;;;;;;;;;-1.75;100.00;98882.67;1794821;79;21481;-67
2021/12/06 06:52:00;;;;;;;;;;;;;;;-1.69;100.00;98884.23;1790187;79;20151;-68
2021/12/06 06:54:27;;;;;;;;;;;;;;;-1.65;100.00;98884.98;1800320;78;20419;-68
2021/12/06 06:56:57;;;;;;;;;;;;;;;-1.66;100.00;98891.77;1794959;79;20698;-68
2021/12/06 06:59:23;;;;;;;;;;;;;;;-1.65;100.00;98886.30;1787330;80;20141;-68
2021/12/06 07:01:50;;;;;;;;;;;;;;;-1.60;100.00;98881.78;1731280;81;21016;-69
2021/12/06 07:04:17;;;;;;;;;;;;;;;-1.58;100.00;98885.84;1760679;81;20102;-69
2021/12/06 07:06:44;;;;;;;;;;;;;;;-1.57;100.00;98890.13;1760514;81;20090;-69
2021/12/06 07:09:12;;;;;;;;;;;;;;;-1.57;100.00;98895.86;1788240;80;20653;-70
2021/12/06 07:11:38;;;;;;;;;;;;;;;-1.53;100.00;98887.91;1792647;78;20393;-70
2021/12/06 07:14:05;;;;;;;;;;;;;;;-1.51;100.00;98889.34;1826341;78;22011;-69
2021/12/06 07:16:31;;;;;;;;;;;;;;;-1.51;100.00;98885.90;1826161;78;20164;-69
2021/12/06 07:18:58;;;;;;;;;;;;;;;-1.48;100.00;98884.70;1826299;78;20177;-70
2021/12/06 07:21:24;;;;;;;;;;;;;;;-1.46;100.00;98884.02;1825955;78;20200;-69
2021/12/06 07:23:51;;;;;;;;;;;;;;;-1.48;100.00;98881.56;1825708;78;20117;-69
2021/12/06 07:26:18;;;;;;;;;;;;;;;-1.46;100.00;98882.19;1825866;78;21810;-69
2021/12/06 07:28:46;;;;;;;;;;;;;;;-1.42;100.00;98874.23;1826170;78;20101;-69
2021/12/06 07:31:14;;;;;;;;;;;;;;;-1.39;100.00;98880.41;1827005;78;20093;-69
2021/12/06 07:33:43;;;;;;;;;;;;;;;-1.38;100.00;98882.03;1826505;78;20152;-69
2021/12/06 07:36:10;;;;;;;;;;;;;;;-1.33;100.00;98880.95;1826208;77;20173;-69
2021/12/06 07:38:38;;;;;;;;;;;;;;;-1.30;100.00;98875.80;1825300;77;21103;-69
2021/12/06 07:41:08;;;;;;;;;;;;;;;-1.30;100.00;98875.31;1825258;78;20070;-69
2021/12/06 07:43:35;;;;;;;;;;;;;;;-1.25;100.00;98873.90;1825046;78;20109;-70
2021/12/06 07:46:02;;;;;;;;;;;;;;;-1.20;100.00;98867.55;1825072;78;20170;-70
2021/12/06 07:48:29;;;;;;;;;;;;;;;-1.10;100.00;98864.08;1825150;78;20434;-70
2021/12/06 07:50:56;;;;;;;;;;;;;;;-1.04;100.00;98861.16;1826922;78;21479;-70
2021/12/06 07:53:22;;;;;;;;;;;;;;;-0.96;100.00;98863.62;1786817;80;20421;-70
2021/12/06 07:55:48;;;;;;;;;;;;;;;-0.92;100.00;98864.35;1825662;77;20109;-70
2021/12/06 07:58:15;;;;;;;;;;;;;;;-0.90;100.00;98864.16;1825023;78;20089;-70
2021/12/06 08:00:45;;;;;;;;;;;;;;;-0.86;100.00;98864.06;1825126;78;20109;-70
2021/12/06 08:03:13;;;;;;;;;;;;;;;-0.80;100.00;98858.53;1785908;77;21162;-69
2021/12/06 08:05:41;;;;;;;;;;;;;;;-0.81;100.00;98874.02;1786134;80;20109;-70
2021/12/06 08:08:19;;;;;;;;;;;;;;;-0.82;100.00;98865.81;1785296;80;20193;-70
2021/12/06 08:10:48;;;;;;;;;;;;;;;-0.83;100.00;98876.86;1786459;80;20142;-69
2021/12/06 08:13:17;;;;;;;;;;;;;;;-0.83;100.00;98879.98;1785934;80;20094;-70
2021/12/06 08:15:44;;;;;;;;;;;;;;;-0.80;100.00;98879.61;1785849;80;21165;-69
2021/12/06 08:18:11;;;;;;;;;;;;;;;-0.75;100.00;98876.69;1786001;80;20428;-69
2021/12/06 08:20:38;;;;;;;;;;;;;;;-0.78;100.00;98877.09;1790572;78;20138;-69
2021/12/06 08:23:04;;;;;;;;;;;;;;;-0.75;100.00;98879.32;1788605;79;20686;-69
2021/12/06 08:25:32;;;;;;;;;;;;;;;-0.69;100.00;98877.20;1800375;79;20160;-69
2021/12/06 08:27:58;;;;;;;;;;;;;;;-0.63;100.00;98876.12;1800469;79;21160;-69
2021/12/06 08:30:26;;;;;;;;;;;;;;;-0.63;100.00;98876.12;1801283;79;20141;-69
2021/12/06 08:32:55;;;;;;;;;;;;;;;-0.59;100.00;98866.80;1800463;79;20137;-69
2021/12/06 08:35:22;;;;;;;;;;;;;;;-0.57;100.00;98872.17;1800161;78;20156;-70
2021/12/06 08:37:49;;;;;;;;;;;;;;;-0.55;100.00;98875.94;1800752;79;20143;-69
2021/12/06 08:40:23;;;;;;;;;;;;;;;-0.56;100.00;98868.55;1800554;79;21953;-69
2021/12/06 08:42:49;;;;;;;;;;;;;;;-0.50;100.00;98868.25;1796636;78;20078;-70
2021/12/06 08:45:16;;;;;;;;;;;;;;;-0.45;100.00;98871.09;1788104;79;20475;-70
2021/12/06 08:47:43;;;;;;;;;;;;;;;-0.40;100.00;98867.35;1795814;78;20179;-70
2021/12/06 08:50:14;;;;;;;;;;;;;;;-0.37;100.00;98851.13;1798782;79;20142;-70
2021/12/06 08:52:40;;;;;;;;;;;;;;;-0.39;100.00;98860.25;1800156;79;21135;-70
2021/12/06 08:55:07;;;;;;;;;;;;;;;-0.38;100.00;98857.94;1800380;79;20463;-70
2021/12/06 08:57:34;;;;;;;;;;;;;;;-0.40;100.00;98846.27;1800439;79;20094;-70
2021/12/06 09:00:01;;;;;;;;;;;;;;;-0.39;100.00;98843.11;1762608;81;20149;-69
2021/12/06 09:02:27;;;;;;;;;;;;;;;-0.40;100.00;98843.63;1792283;78;20505;-69
2021/12/06 09:04:54;;;;;;;;;;;;;;;-0.37;100.00;98845.85;1819898;79;21840;-71
2021/12/06 09:07:23;;;;;;;;;;;;;;;-0.34;100.00;98838.05;1820158;79;20137;-70
2021/12/06 09:09:50;;;;;;;;;;;;;;;-0.30;100.00;98833.49;1820158;79;20093;-70
2021/12/06 09:12:20;;;;;;;;;;;;;;;-0.30;100.00;98834.81;1820210;79;20736;-71
2021/12/06 09:14:47;;;;;;;;;;;;;;;-0.31;100.00;98841.11;1819597;78;20137;-70
2021/12/06 09:17:13;;;;;;;;;;;;;;;-0.27;100.00;98831.80;1819574;79;21143;-71
2021/12/06 09:19:41;;;;;;;;;;;;;;;-0.26;100.00;98830.77;1820102;79;20133;-71
2021/12/06 09:22:07;;;;;;;;;;;;;;;-0.24;100.00;98828.75;1820275;79;20193;-70
2021/12/06 09:24:34;;;;;;;;;;;;;;;-0.26;100.00;98829.45;1820223;79;20109;-70
2021/12/06 09:27:01;;;;;;;;;;;;;;;-0.31;100.00;98825.29;1820337;79;20177;-71
2021/12/06 09:29:29;;;;;;;;;;;;;;;-0.36;100.00;98819.00;1820184;79;21165;-70
2021/12/06 09:31:59;;;;;;;;;;;;;;;-0.40;100.00;98828.31;1820222;79;20443;-71
2021/12/06 09:34:25;;;;;;;;;;;;;;;-0.39;100.00;98823.34;1794126;79;20419;-70
2021/12/06 09:36:51;;;;;;;;;;;;;;;-0.39;100.00;98826.81;1820138;79;20152;-70
2021/12/06 09:39:18;;;;;;;;;;;;;;;-0.38;100.00;98814.43;1820450;79;20754;-71
2021/12/06 09:41:44;;;;;;;;;;;;;;;-0.34;100.00;98809.88;1820196;79;21140;-70
2021/12/06 09:44:11;;;;;;;;;;;;;;;-0.28;100.00;98814.84;1820052;77;20682;-71
2021/12/06 09:46:38;;;;;;;;;;;;;;;-0.28;100.00;98816.97;1817497;78;20173;-69
2021/12/06 09:49:15;;;;;;;;;;;;;;;-0.20;100.00;98804.59;1817943;78;20105;-70
2021/12/06 09:51:44;;;;;;;;;;;;;;;-0.16;100.00;98799.23;1815049;79;20148;-70
2021/12/06 09:54:11;;;;;;;;;;;;;;;-0.23;100.00;98788.16;1812282;79;21125;-71
2021/12/06 09:56:42;;;;;;;;;;;;;;;-0.25;100.00;98792.81;1820526;77;20134;-70
2021/12/06 09:59:12;;;;;;;;;;;;;;;-0.22;100.00;98786.36;1784323;79;20142;-70
2021/12/06 10:01:44;;;;;;;;;;;;;;;-0.20;100.00;98785.62;1819871;77;20484;-70
2021/12/06 10:04:15;;;;;;;;;;;;;;;-0.24;100.00;98789.70;1797306;79;20134;-71
2021/12/06 10:06:42;;;;;;;;;;;;;;;-0.24;100.00;98785.23;1797559;80;21141;-70
2021/12/06 10:09:10;;;;;;;;;;;;;;;-0.15;100.00;98791.61;1797814;78;20103;-69
2021/12/06 10:11:37;;;;;;;;;;;;;;;-0.12;100.00;98783.28;1779398;78;20196;-70
2021/12/06 10:14:03;;;;;;;;;;;;;;;-0.06;100.00;98786.45;1811226;79;20170;-70
2021/12/06 10:16:31;;;;;;;;;;;;;;;-0.07;100.00;98790.11;1811060;79;20102;-71
2021/12/06 10:18:59;;;;;;;;;;;;;;;-0.05;100.00;98788.05;1811099;79;21193;-69
2021/12/06 10:21:27;;;;;;;;;;;;;;;-0.04;100.00;98794.97;1810763;79;20109;-69
2021/12/06 10:23:55;;;;;;;;;;;;;;;0.00;100.00;98792.24;1811274;79;20113;-69
2021/12/06 10:26:23;;;;;;;;;;;;;;;0.00;100.00;98798.84;1810929;79;20149;-69
2021/12/06 10:28:56;;;;;;;;;;;;;;;-0.01;100.00;98792.72;1790434;78;20083;-70
2021/12/06 10:31:23;;;;;;;;;;;;;;;-0.04;100.00;98797.09;1774672;80;24780;-69
2021/12/06 10:33:50;;;;;;;;;;;;;;;-0.06;100.00;98804.39;1774962;81;20079;-70
2021/12/06 10:36:18;;;;;;;;;;;;;;;-0.02;100.00;98794.27;1795565;79;20340;-70
2021/12/06 10:38:51;;;;;;;;;;;;;;;-0.06;100.00;98787.25;1785480;79;20189;-70
2021/12/06 10:41:17;;;;;;;;;;;;;;;-0.08;100.00;98779.23;1795118;79;20086;-70
2021/12/06 10:43:54;;;;;;;;;;;;;;;-0.11;100.00;98783.09;1810973;79;21141;-70
2021/12/06 10:46:22;;;;;;;;;;;;;;;-0.09;100.00;98782.90;1810041;79;20114;-71
2021/12/06 10:48:49;;;;;;;;;;;;;;;-0.08;100.00;98802.47;1807072;79;20074;-71
2021/12/06 10:51:17;;;;;;;;;;;;;;;-0.11;100.00;98804.71;1759624;81;20134;-71
2021/12/06 10:53:49;;;;;;;;;;;;;;;-0.12;100.00;98799.11;1797627;79;20199;-71
2021/12/06 10:56:20;;;;;;;;;;;;;;;-0.12;100.00;98793.36;1760037;80;21148;-71
2021/12/06 10:58:49;;;;;;;;;;;;;;;-0.10;100.00;98786.53;1797523;79;20122;-71
2021/12/06 11:01:31;;;;;;;;;;;;;;;-0.05;100.00;98786.73;1796545;79;20074;-69
2021/12/06 11:03:57;;;;;;;;;;;;;;;0.02;100.00;98778.83;1799865;79;20472;-70
2021/12/06 11:06:29;;;;;;;;;;;;;;;0.05;100.00;98778.41;1800764;79;20110;-71
2021/12/06 11:08:57;;;;;;;;;;;;;;;0.02;100.00;98777.50;1799408;79;21546;-71
2021/12/06 11:11:28;;;;;;;;;;;;;;;0.02;100.00;98772.23;1785734;78;20127;-70
2021/12/06 11:13:57;;;;;;;;;;;;;;;0.04;100.00;98765.73;1777035;80;20151;-71
2021/12/06 11:16:28;;;;;;;;;;;;;;;0.06;100.00;98766.34;1777818;80;20142;-69
2021/12/06 11:18:57;;;;;;;;;;;;;;;0.08;100.00;98755.08;1778733;79;20211;-72
2021/12/06 11:21:30;;;;;;;;;;;;;;;0.05;100.00;98754.18;1793342;78;21114;-71
2021/12/06 11:24:01;;;;;;;;;;;;;;;0.07;100.00;98763.99;1794520;79;20447;-70
2021/12/06 11:26:27;;;;;;;;;;;;;;;0.10;100.00;98768.05;1783637;79;20126;-72
2021/12/06 11:28:54;;;;;;;;;;;;;;;0.05;100.00;98765.22;1782416;79;20222;-71
2021/12/06 11:31:20;;;;;;;;;;;;;;;0.04;100.00;98765.73;1784887;79;20150;-72
2021/12/06 11:34:00;;;;;;;;;;;;;;;-0.01;100.00;98773.45;1785140;79;21532;-70
2021/12/06 11:36:27;;;;;;;;;;;;;;;-0.03;100.00;98776.28;1796033;79;20212;-71
2021/12/06 11:39:00;;;;;;;;;;;;;;;-0.04;100.00;98776.50;1799801;79;20214;-71
2021/12/06 11:41:29;;;;;;;;;;;;;;;-0.10;100.00;98775.98;1799528;79;20128;-70
2021/12/06 11:43:59;;;;;;;;;;;;;;;-0.18;100.00;98773.56;1800293;78;20145;-73
2021/12/06 11:46:28;;;;;;;;;;;;;;;-0.23;100.00;98784.72;1796843;79;21128;-73
2021/12/06 11:48:55;;;;;;;;;;;;;;;-0.25;100.00;98780.95;1777828;79;20125;-74
2021/12/06 11:51:22;;;;;;;;;;;;;;;-0.27;100.00;98781.69;1798778;79;20079;-71
2021/12/06 11:53:54;;;;;;;;;;;;;;;-0.24;100.00;98774.68;1791379;78;20510;-70
2021/12/06 11:56:27;;;;;;;;;;;;;;;-0.20;100.00;98773.75;1792710;79;20239;-73
2021/12/06 11:59:03;;;;;;;;;;;;;;;-0.20;100.00;98772.44;1775872;80;21112;-75
2021/12/06 12:01:34;;;;;;;;;;;;;;;-0.21;100.00;98773.46;1776574;80;20493;-75
2021/12/06 12:04:04;;;;;;;;;;;;;;;-0.22;100.00;98773.97;1809750;79;20126;-74
2021/12/06 12:06:35;;;;;;;;;;;;;;;-0.20;100.00;98767.67;1817109;79;20134;-73
2021/12/06 12:09:20;;;;;;;;;;;;;;;-0.22;100.00;98764.74;1816857;77;20113;-73
2021/12/06 12:11:59;;;;;;;;;;;;;;;-0.25;100.00;98761.17;1816019;79;22003;-73
2021/12/06 12:14:43;;;;;;;;;;;;;;;-0.23;100.00;98766.25;1841109;77;20087;-75
2021/12/06 12:17:19;;;;;;;;;;;;;;;-0.23;100.00;98751.23;1847433;77;20094;-74
2021/12/06 12:19:47;;;;;;;;;;;;;;;-0.20;100.00;98754.48;1819415;77;20097;-70
2021/12/06 12:22:14;;;;;;;;;;;;;;;-0.21;100.00;98748.41;1822572;78;20431;-72
2021/12/06 12:24:44;;;;;;;;;;;;;;;-0.24;100.00;98750.14;1821250;77;21105;-72
2021/12/06 12:27:25;;;;;;;;;;;;;;;-0.25;100.00;98750.63;1814610;78;20240;-71
2021/12/06 12:29:47;;;;;;;;;;;;;;;-0.26;100.00;98749.02;1809034;77;20176;-73
2021/12/06 12:32:14;;;;;;;;;;;;;;;-0.27;100.00;98753.99;1828044;77;20623;-71
2021/12/06 12:34:44;;;;;;;;;;;;;;;-0.26;100.00;98746.38;1759808;80;20651;-72
2021/12/06 12:37:12;;;;;;;;;;;;;;;-0.27;100.00;98734.22;1738892;80;21163;-73
2021/12/06 12:39:42;;;;;;;;;;;;;;;-0.27;100.00;98721.52;1777609;80;20745;-70
2021/12/06 12:42:08;;;;;;;;;;;;;;;-0.29;100.00;98725.69;1784103;79;20217;-71
2021/12/06 12:44:49;;;;;;;;;;;;;;;-0.30;100.00;98724.56;1785953;80;20199;-71
2021/12/06 12:47:22;;;;;;;;;;;;;;;-0.32;100.00;98721.31;1759410;79;20423;-72
2021/12/06 12:49:53;;;;;;;;;;;;;;;-0.33;100.00;98719.19;1793943;79;21243;-73
2021/12/06 12:52:40;;;;;;;;;;;;;;;-0.34;100.00;98720.70;1786193;80;20138;-71
2021/12/06 12:55:19;;;;;;;;;;;;;;;-0.36;100.00;98718.28;1786181;80;20134;-70
2021/12/06 12:57:48;;;;;;;;;;;;;;;-0.35;100.00;98724.36;1758822;79;20153;-71
2021/12/06 13:00:20;;;;;;;;;;;;;;;-0.37;100.00;98715.84;1771786;79;20572;-71